Time;durP1;ratioP1;P1;durP2;ratioP2;P2;SDS_P1;SDS_P2;PMS_P1;PMS_P2;Temp;Humidity;BMP_temperature;BMP_pressure;BME280_temperature;BME280_humidity;BME280_pressure;Samples;Min_cycle;Max_cycle;Signal;HPM_P1;HPM_P2
2022/03/16 00:02:04;;;;;;;116.40;15.80;;;;;;;;;;6308186;22;20138;-65
2022/03/16 00:04:29;;;;;;;77.03;14.43;;;;;;;;;;6308115;22;20214;-65
2022/03/16 00:06:55;;;;;;;107.47;14.80;;;;;;;;;;6308032;22;20189;-64
2022/03/16 00:09:21;;;;;;;91.95;14.70;;;;;;;;;;6308064;22;20200;-64
2022/03/16 00:11:47;;;;;;;94.70;13.85;;;;;;;;;;6308050;22;20143;-64
2022/03/16 00:14:13;;;;;;;131.90;14.52;;;;;;;;;;6307976;22;20237;-64
2022/03/16 00:16:39;;;;;;;121.63;14.18;;;;;;;;;;6307920;22;20603;-65
2022/03/16 00:19:05;;;;;;;112.63;15.00;;;;;;;;;;6308385;22;20147;-65
2022/03/16 00:21:33;;;;;;;144.38;15.35;;;;;;;;;;6308271;22;20188;-65
2022/03/16 00:24:00;;;;;;;137.82;14.98;;;;;;;;;;6308338;22;20180;-65
2022/03/16 00:26:26;;;;;;;180.63;16.90;;;;;;;;;;6308276;22;20147;-65
2022/03/16 00:28:52;;;;;;;114.63;13.52;;;;;;;;;;6308030;22;20135;-65
2022/03/16 00:31:18;;;;;;;101.70;13.93;;;;;;;;;;6307926;22;20440;-65
2022/03/16 00:33:44;;;;;;;142.57;13.98;;;;;;;;;;6307804;22;20447;-65
2022/03/16 00:36:10;;;;;;;165.43;15.68;;;;;;;;;;6307802;22;20135;-65
2022/03/16 00:38:36;;;;;;;81.55;12.98;;;;;;;;;;6307900;22;20493;-64
2022/03/16 00:41:02;;;;;;;152.82;14.98;;;;;;;;;;6308131;22;20233;-64
2022/03/16 00:43:28;;;;;;;136.60;14.82;;;;;;;;;;6307753;22;20586;-65
2022/03/16 00:45:54;;;;;;;199.23;16.10;;;;;;;;;;6308225;22;20139;-64
2022/03/16 00:48:20;;;;;;;189.23;16.80;;;;;;;;;;6307855;22;20563;-65
2022/03/16 00:50:46;;;;;;;107.43;13.30;;;;;;;;;;6308015;22;20494;-65
2022/03/16 00:53:12;;;;;;;103.72;13.60;;;;;;;;;;6307750;22;20207;-65
2022/03/16 00:55:38;;;;;;;93.95;12.98;;;;;;;;;;6309306;22;20268;-65
2022/03/16 00:58:04;;;;;;;158.60;14.13;;;;;;;;;;6309807;22;20237;-65
2022/03/16 01:00:30;;;;;;;73.30;12.73;;;;;;;;;;6310013;22;20139;-64
2022/03/16 01:02:55;;;;;;;92.80;13.98;;;;;;;;;;6310037;22;20166;-65
2022/03/16 01:05:22;;;;;;;109.22;13.27;;;;;;;;;;6310156;22;20186;-64
2022/03/16 01:07:48;;;;;;;128.05;13.55;;;;;;;;;;6310332;22;20499;-64
2022/03/16 01:10:14;;;;;;;80.35;11.90;;;;;;;;;;6310259;22;20139;-64
2022/03/16 01:12:40;;;;;;;104.47;12.52;;;;;;;;;;6310081;22;20146;-64
2022/03/16 01:15:06;;;;;;;124.43;14.45;;;;;;;;;;6310072;22;20661;-64
2022/03/16 01:17:32;;;;;;;92.05;12.00;;;;;;;;;;6310103;22;20504;-65
2022/03/16 01:19:58;;;;;;;180.85;14.07;;;;;;;;;;6310043;22;20142;-64
2022/03/16 01:22:24;;;;;;;71.05;10.70;;;;;;;;;;6309769;22;20192;-64
2022/03/16 01:24:50;;;;;;;142.50;14.07;;;;;;;;;;6310523;22;20743;-64
2022/03/16 01:27:16;;;;;;;72.90;11.05;;;;;;;;;;6310184;22;20147;-64
2022/03/16 01:29:41;;;;;;;122.70;12.85;;;;;;;;;;6309758;22;20436;-64
2022/03/16 01:32:08;;;;;;;108.22;12.43;;;;;;;;;;6309931;22;20138;-64
2022/03/16 01:34:35;;;;;;;70.60;11.15;;;;;;;;;;6309523;22;20163;-65
2022/03/16 01:37:01;;;;;;;94.82;11.85;;;;;;;;;;6309609;22;20233;-64
2022/03/16 01:39:27;;;;;;;68.53;11.05;;;;;;;;;;6309518;22;20682;-64
2022/03/16 01:41:53;;;;;;;98.80;11.88;;;;;;;;;;6309845;22;20175;-65
2022/03/16 01:44:39;;;;;;;93.20;11.77;;;;;;;;;;6309435;22;20149;-64
2022/03/16 01:47:05;;;;;;;100.00;12.50;;;;;;;;;;6309391;22;20192;-64
2022/03/16 01:49:31;;;;;;;84.68;11.65;;;;;;;;;;6309621;22;20139;-63
2022/03/16 01:51:57;;;;;;;85.60;11.77;;;;;;;;;;6309952;22;20255;-63
2022/03/16 01:54:23;;;;;;;60.60;10.85;;;;;;;;;;6310008;22;20170;-63
2022/03/16 01:56:49;;;;;;;69.10;11.73;;;;;;;;;;6309739;22;20139;-63
2022/03/16 01:59:15;;;;;;;57.63;10.40;;;;;;;;;;6309739;22;20204;-63
2022/03/16 02:01:40;;;;;;;69.53;10.95;;;;;;;;;;6282680;22;20143;-62
2022/03/16 02:04:06;;;;;;;74.53;10.70;;;;;;;;;;6309349;22;20146;-63
2022/03/16 02:06:33;;;;;;;120.45;12.77;;;;;;;;;;6309510;22;20139;-63
2022/03/16 02:08:59;;;;;;;131.65;12.75;;;;;;;;;;6309871;22;20168;-63
2022/03/16 02:11:24;;;;;;;116.68;12.27;;;;;;;;;;6309733;22;20139;-63
2022/03/16 02:13:50;;;;;;;107.82;12.75;;;;;;;;;;6309345;22;20170;-62
2022/03/16 02:16:16;;;;;;;101.43;13.02;;;;;;;;;;6309674;22;20147;-63
2022/03/16 02:18:43;;;;;;;63.15;11.75;;;;;;;;;;6309330;22;20158;-63
2022/03/16 02:21:09;;;;;;;67.38;11.40;;;;;;;;;;6309805;22;20439;-63
2022/03/16 02:23:35;;;;;;;77.22;12.38;;;;;;;;;;6309717;22;20143;-63
2022/03/16 02:26:01;;;;;;;70.50;10.85;;;;;;;;;;6309495;22;20139;-63
2022/03/16 02:28:27;;;;;;;121.10;13.27;;;;;;;;;;6310098;22;20188;-63
2022/03/16 02:30:53;;;;;;;134.73;15.02;;;;;;;;;;6310727;22;20154;-62
2022/03/16 02:33:19;;;;;;;81.53;13.77;;;;;;;;;;6310210;22;20163;-62
2022/03/16 02:35:47;;;;;;;94.25;13.27;;;;;;;;;;6310404;22;20135;-62
2022/03/16 02:38:13;;;;;;;79.43;13.88;;;;;;;;;;6309647;22;20159;-63
2022/03/16 02:40:38;;;;;;;94.22;13.60;;;;;;;;;;6309775;22;20234;-62
2022/03/16 02:43:05;;;;;;;73.82;13.90;;;;;;;;;;6310214;22;20169;-63
2022/03/16 02:45:31;;;;;;;88.00;14.00;;;;;;;;;;6310680;22;20151;-62
2022/03/16 02:47:57;;;;;;;95.18;13.80;;;;;;;;;;6310335;22;20585;-63
2022/03/16 02:50:23;;;;;;;82.20;14.55;;;;;;;;;;6310579;22;20143;-61
2022/03/16 02:52:49;;;;;;;75.30;13.98;;;;;;;;;;6310237;22;20538;-63
2022/03/16 02:55:15;;;;;;;94.25;14.90;;;;;;;;;;6310060;22;20139;-62
2022/03/16 02:57:42;;;;;;;86.47;13.05;;;;;;;;;;6309546;22;20139;-62
2022/03/16 03:00:08;;;;;;;92.18;14.23;;;;;;;;;;6310055;22;20139;-62
2022/03/16 03:02:35;;;;;;;112.00;14.40;;;;;;;;;;6309457;22;20496;-62
2022/03/16 03:05:01;;;;;;;64.25;12.32;;;;;;;;;;6309786;22;20135;-62
2022/03/16 03:07:27;;;;;;;58.50;12.02;;;;;;;;;;6310115;22;20143;-62
2022/03/16 03:09:53;;;;;;;99.97;13.38;;;;;;;;;;6309191;22;20179;-62
2022/03/16 03:12:19;;;;;;;67.50;12.88;;;;;;;;;;6309392;22;20146;-62
2022/03/16 03:14:45;;;;;;;89.82;12.77;;;;;;;;;;6309094;22;20173;-62
2022/03/16 03:17:10;;;;;;;107.38;14.68;;;;;;;;;;6309442;22;20143;-62
2022/03/16 03:19:36;;;;;;;92.05;12.50;;;;;;;;;;6309295;22;20162;-62
2022/03/16 03:22:05;;;;;;;95.63;12.75;;;;;;;;;;6309457;22;20139;-62
2022/03/16 03:24:31;;;;;;;108.03;12.77;;;;;;;;;;6309289;22;20243;-62
2022/03/16 03:26:57;;;;;;;65.20;12.27;;;;;;;;;;6317326;22;20143;-63
2022/03/16 03:29:23;;;;;;;47.85;11.27;;;;;;;;;;6314978;22;20221;-63
2022/03/16 03:31:49;;;;;;;98.63;12.85;;;;;;;;;;6309136;22;20139;-62
2022/03/16 03:34:15;;;;;;;85.43;12.70;;;;;;;;;;6308510;22;20163;-61
2022/03/16 03:36:41;;;;;;;73.68;12.85;;;;;;;;;;6308926;22;20176;-63
2022/03/16 03:39:07;;;;;;;85.70;12.43;;;;;;;;;;6308661;22;20135;-62
2022/03/16 03:41:33;;;;;;;94.22;12.68;;;;;;;;;;6308563;22;20145;-63
2022/03/16 03:43:59;;;;;;;139.52;13.80;;;;;;;;;;6308560;22;20480;-62
2022/03/16 03:46:25;;;;;;;87.15;12.80;;;;;;;;;;6308620;22;20178;-63
2022/03/16 03:48:51;;;;;;;85.68;12.00;;;;;;;;;;6308614;22;20143;-63
2022/03/16 03:51:17;;;;;;;95.45;12.02;;;;;;;;;;6308688;22;20138;-63
2022/03/16 03:53:42;;;;;;;98.80;13.30;;;;;;;;;;6308566;22;20194;-63
2022/03/16 03:56:08;;;;;;;62.50;11.27;;;;;;;;;;6308532;22;20157;-63
2022/03/16 03:58:35;;;;;;;109.68;12.75;;;;;;;;;;6308477;22;20155;-63
2022/03/16 04:01:01;;;;;;;83.00;12.52;;;;;;;;;;6309109;22;20217;-63
2022/03/16 04:03:27;;;;;;;78.18;12.10;;;;;;;;;;6308661;22;20166;-63
2022/03/16 04:05:53;;;;;;;112.97;12.95;;;;;;;;;;6308505;22;20150;-63
2022/03/16 04:08:19;;;;;;;100.20;12.65;;;;;;;;;;6308999;22;20576;-63
2022/03/16 04:10:45;;;;;;;122.53;14.88;;;;;;;;;;6308378;22;20143;-63
2022/03/16 04:13:11;;;;;;;111.05;13.52;;;;;;;;;;6308332;22;20167;-62
2022/03/16 04:15:36;;;;;;;114.07;13.88;;;;;;;;;;6308378;22;20135;-62
2022/03/16 04:18:02;;;;;;;113.57;13.27;;;;;;;;;;6308644;22;20149;-62
2022/03/16 04:20:28;;;;;;;100.70;12.95;;;;;;;;;;6308831;22;20139;-63
2022/03/16 04:22:54;;;;;;;51.40;11.90;;;;;;;;;;6308936;22;20614;-63
2022/03/16 04:25:20;;;;;;;115.63;14.23;;;;;;;;;;6308232;22;20138;-62
2022/03/16 04:27:46;;;;;;;94.95;12.70;;;;;;;;;;6308224;22;20455;-62
2022/03/16 04:30:12;;;;;;;69.35;12.35;;;;;;;;;;6308640;22;20143;-63
2022/03/16 04:32:38;;;;;;;78.30;13.23;;;;;;;;;;6308386;22;20142;-62
2022/03/16 04:35:04;;;;;;;79.47;11.88;;;;;;;;;;6308466;22;20415;-63
2022/03/16 04:37:30;;;;;;;68.65;11.82;;;;;;;;;;6281334;22;20250;-63
2022/03/16 04:39:56;;;;;;;147.32;14.43;;;;;;;;;;6308212;22;20171;-63
2022/03/16 04:42:22;;;;;;;126.75;13.88;;;;;;;;;;6308542;22;20216;-62
2022/03/16 04:44:48;;;;;;;111.70;13.15;;;;;;;;;;6308241;22;20143;-63
2022/03/16 04:47:14;;;;;;;104.00;13.90;;;;;;;;;;6308263;22;20143;-63
2022/03/16 04:49:40;;;;;;;66.82;12.20;;;;;;;;;;6308329;22;20222;-62
2022/03/16 04:52:06;;;;;;;70.38;11.85;;;;;;;;;;6308203;22;20165;-61
2022/03/16 04:54:32;;;;;;;82.13;12.95;;;;;;;;;;6312455;22;20174;-62
2022/03/16 04:56:57;;;;;;;73.22;12.27;;;;;;;;;;6318106;22;20135;-62
2022/03/16 04:59:23;;;;;;;74.45;12.52;;;;;;;;;;6317677;22;20147;-62
2022/03/16 05:01:49;;;;;;;84.80;13.27;;;;;;;;;;6314627;22;20542;-62
2022/03/16 05:04:15;;;;;;;112.65;13.48;;;;;;;;;;6310532;22;20531;-62
2022/03/16 05:06:41;;;;;;;110.55;14.15;;;;;;;;;;6308183;22;20139;-62
2022/03/16 05:09:07;;;;;;;107.75;13.80;;;;;;;;;;6307855;22;20139;-64
2022/03/16 05:11:34;;;;;;;87.30;14.32;;;;;;;;;;6308104;22;20143;-64
2022/03/16 05:14:00;;;;;;;140.73;15.55;;;;;;;;;;6308160;22;20174;-63
2022/03/16 05:16:26;;;;;;;72.00;13.05;;;;;;;;;;6308103;22;20158;-64
2022/03/16 05:18:52;;;;;;;110.57;14.85;;;;;;;;;;6308529;22;20265;-63
2022/03/16 05:21:18;;;;;;;92.28;14.60;;;;;;;;;;6308090;22;20146;-64
2022/03/16 05:23:43;;;;;;;95.75;14.65;;;;;;;;;;6307917;22;20143;-64
2022/03/16 05:26:09;;;;;;;89.28;16.33;;;;;;;;;;6308031;22;20139;-64
2022/03/16 05:28:35;;;;;;;153.23;16.40;;;;;;;;;;6308147;22;20208;-63
2022/03/16 05:31:01;;;;;;;113.57;13.90;;;;;;;;;;6308815;22;20225;-64
2022/03/16 05:33:27;;;;;;;114.45;14.45;;;;;;;;;;6308402;22;20194;-63
2022/03/16 05:35:53;;;;;;;86.57;14.35;;;;;;;;;;6308262;22;20139;-63
2022/03/16 05:38:20;;;;;;;72.20;13.45;;;;;;;;;;6308987;22;20155;-64
2022/03/16 05:40:45;;;;;;;80.05;13.30;;;;;;;;;;6308794;22;20150;-63
2022/03/16 05:43:13;;;;;;;74.85;11.52;;;;;;;;;;6309838;22;20143;-63
2022/03/16 05:45:39;;;;;;;52.92;11.00;;;;;;;;;;6310120;22;20147;-64
2022/03/16 05:48:05;;;;;;;89.05;11.93;;;;;;;;;;6309529;22;20149;-63
2022/03/16 05:50:31;;;;;;;43.42;9.82;;;;;;;;;;6309445;22;20264;-63
2022/03/16 05:52:57;;;;;;;57.03;10.07;;;;;;;;;;6309505;22;20174;-63
2022/03/16 05:55:23;;;;;;;47.08;8.50;;;;;;;;;;6309777;22;20448;-64
2022/03/16 05:57:50;;;;;;;46.78;7.97;;;;;;;;;;6309813;22;20145;-63
2022/03/16 06:00:17;;;;;;;36.00;7.88;;;;;;;;;;6309525;22;20135;-64
2022/03/16 06:02:43;;;;;;;52.80;7.78;;;;;;;;;;6309850;22;20143;-64
2022/03/16 06:05:09;;;;;;;61.58;7.78;;;;;;;;;;6309129;22;20215;-64
2022/03/16 06:07:37;;;;;;;30.88;6.65;;;;;;;;;;6309399;22;20212;-64
2022/03/16 06:10:03;;;;;;;34.67;6.53;;;;;;;;;;6309505;22;20162;-64
2022/03/16 06:12:29;;;;;;;42.25;7.70;;;;;;;;;;6309324;22;20139;-64
2022/03/16 06:14:55;;;;;;;62.55;7.22;;;;;;;;;;6309124;22;20312;-64
2022/03/16 06:17:21;;;;;;;63.75;7.68;;;;;;;;;;6309055;22;20153;-65
2022/03/16 06:19:47;;;;;;;44.42;7.00;;;;;;;;;;6309050;22;20139;-64
2022/03/16 06:22:13;;;;;;;49.40;7.90;;;;;;;;;;6308985;22;20135;-65
2022/03/16 06:24:39;;;;;;;56.15;8.25;;;;;;;;;;6309235;22;20143;-64
2022/03/16 06:27:05;;;;;;;27.73;7.60;;;;;;;;;;6309357;22;20139;-64
2022/03/16 06:29:32;;;;;;;36.10;8.73;;;;;;;;;;6308949;22;20146;-64
2022/03/16 06:31:58;;;;;;;36.08;8.50;;;;;;;;;;6309008;22;20559;-65
2022/03/16 06:34:23;;;;;;;27.60;8.27;;;;;;;;;;6308957;22;20173;-64
2022/03/16 06:36:49;;;;;;;33.47;8.40;;;;;;;;;;6308705;22;20150;-65
2022/03/16 06:39:15;;;;;;;32.50;7.55;;;;;;;;;;6308744;22;20139;-64
2022/03/16 06:41:43;;;;;;;25.98;6.00;;;;;;;;;;6309036;22;20138;-64
2022/03/16 06:44:09;;;;;;;12.27;5.35;;;;;;;;;;6309060;22;20143;-64
2022/03/16 06:46:35;;;;;;;25.88;6.03;;;;;;;;;;6308740;22;20154;-64
2022/03/16 06:49:01;;;;;;;23.25;6.72;;;;;;;;;;6308634;22;20161;-65
2022/03/16 06:51:27;;;;;;;20.63;5.60;;;;;;;;;;6308427;22;20445;-65
2022/03/16 06:53:53;;;;;;;26.02;4.93;;;;;;;;;;6308469;22;20162;-64
2022/03/16 06:56:19;;;;;;;15.23;5.28;;;;;;;;;;6308533;22;20143;-65
2022/03/16 06:58:44;;;;;;;19.15;5.75;;;;;;;;;;6308396;22;20135;-65
2022/03/16 07:01:10;;;;;;;19.85;6.40;;;;;;;;;;6308643;22;20142;-65
2022/03/16 07:03:36;;;;;;;15.93;5.82;;;;;;;;;;6308550;22;20562;-64
2022/03/16 07:06:03;;;;;;;13.45;5.72;;;;;;;;;;6308451;22;20143;-65
2022/03/16 07:08:29;;;;;;;14.10;6.22;;;;;;;;;;6308663;22;20625;-65
2022/03/16 07:10:54;;;;;;;16.27;6.03;;;;;;;;;;6308644;22;20231;-64
2022/03/16 07:13:21;;;;;;;19.35;5.80;;;;;;;;;;6308846;22;20176;-65
2022/03/16 07:15:47;;;;;;;15.25;5.10;;;;;;;;;;6308399;22;20139;-65
2022/03/16 07:18:13;;;;;;;17.40;4.75;;;;;;;;;;6308868;22;20222;-65
2022/03/16 07:20:40;;;;;;;16.75;5.00;;;;;;;;;;6308923;22;20146;-63
2022/03/16 07:23:06;;;;;;;13.23;5.13;;;;;;;;;;6308399;22;20139;-65
2022/03/16 07:25:32;;;;;;;15.68;5.35;;;;;;;;;;6308832;22;20154;-64
2022/03/16 07:27:58;;;;;;;15.48;5.13;;;;;;;;;;6308283;22;20154;-65
2022/03/16 07:30:24;;;;;;;14.93;5.75;;;;;;;;;;6308466;22;20143;-65
2022/03/16 07:32:50;;;;;;;14.73;5.22;;;;;;;;;;6308291;22;20177;-64
2022/03/16 07:35:16;;;;;;;11.55;5.90;;;;;;;;;;6308251;22;20143;-64
2022/03/16 07:37:42;;;;;;;10.18;5.40;;;;;;;;;;6307979;22;20308;-64
2022/03/16 07:40:08;;;;;;;14.60;6.15;;;;;;;;;;6308149;22;20135;-64
2022/03/16 07:42:35;;;;;;;10.65;5.70;;;;;;;;;;6308210;22;20579;-64
2022/03/16 07:45:01;;;;;;;13.23;6.10;;;;;;;;;;6308529;22;20138;-64
2022/03/16 07:47:27;;;;;;;11.95;6.30;;;;;;;;;;6308048;22;20150;-64
2022/03/16 07:49:53;;;;;;;11.60;5.85;;;;;;;;;;6308190;22;20139;-64
2022/03/16 07:52:22;;;;;;;11.35;5.55;;;;;;;;;;6307945;22;20142;-63
2022/03/16 07:54:48;;;;;;;11.90;5.68;;;;;;;;;;6308106;22;20236;-65
2022/03/16 07:57:16;;;;;;;11.27;5.32;;;;;;;;;;6307893;22;20217;-66
2022/03/16 07:59:42;;;;;;;12.30;6.10;;;;;;;;;;6308191;22;20430;-64
2022/03/16 08:02:08;;;;;;;11.27;6.18;;;;;;;;;;6308148;22;20219;-64
2022/03/16 08:04:34;;;;;;;10.20;6.07;;;;;;;;;;6308017;22;20143;-64
2022/03/16 08:07:00;;;;;;;9.80;6.20;;;;;;;;;;6307935;22;20151;-64
2022/03/16 08:09:25;;;;;;;9.68;5.38;;;;;;;;;;6308029;22;20491;-64
2022/03/16 08:11:51;;;;;;;10.10;5.43;;;;;;;;;;6308085;22;20160;-64
2022/03/16 08:14:17;;;;;;;9.52;5.88;;;;;;;;;;6308283;22;20162;-64
2022/03/16 08:16:43;;;;;;;8.57;5.25;;;;;;;;;;6307904;22;20138;-64
2022/03/16 08:19:09;;;;;;;9.45;5.75;;;;;;;;;;6308088;22;20561;-64
2022/03/16 08:21:35;;;;;;;8.98;5.35;;;;;;;;;;6307814;22;20142;-64
2022/03/16 08:24:01;;;;;;;9.50;5.18;;;;;;;;;;6308115;22;20216;-64
2022/03/16 08:26:27;;;;;;;10.10;5.40;;;;;;;;;;6281863;22;20562;-64
2022/03/16 08:28:53;;;;;;;7.53;5.00;;;;;;;;;;6308449;22;20146;-64
2022/03/16 08:31:19;;;;;;;10.40;6.18;;;;;;;;;;6281099;22;20237;-64
2022/03/16 08:33:45;;;;;;;9.80;5.68;;;;;;;;;;6308739;22;20193;-63
2022/03/16 08:36:11;;;;;;;8.05;4.90;;;;;;;;;;6308866;22;20561;-64
2022/03/16 08:38:38;;;;;;;9.23;5.20;;;;;;;;;;6308389;22;20127;-62
2022/03/16 08:41:04;;;;;;;9.07;5.65;;;;;;;;;;6308685;22;20139;-64
2022/03/16 08:43:31;;;;;;;8.30;5.00;;;;;;;;;;6308942;22;20230;-65
2022/03/16 08:45:58;;;;;;;8.13;5.25;;;;;;;;;;6310701;22;20146;-64
2022/03/16 08:48:24;;;;;;;8.13;5.07;;;;;;;;;;6308668;22;20153;-64
2022/03/16 08:50:50;;;;;;;10.95;6.03;;;;;;;;;;6308121;22;20547;-65
2022/03/16 08:53:16;;;;;;;9.90;6.07;;;;;;;;;;6308665;22;20167;-64
2022/03/16 08:55:42;;;;;;;10.55;5.72;;;;;;;;;;6309261;22;20189;-65
2022/03/16 08:58:08;;;;;;;7.90;5.18;;;;;;;;;;6308089;22;20147;-65
2022/03/16 09:00:34;;;;;;;9.57;5.55;;;;;;;;;;6308263;22;20139;-64
2022/03/16 09:03:00;;;;;;;9.63;5.78;;;;;;;;;;6308840;22;20218;-65
2022/03/16 09:05:27;;;;;;;8.90;4.47;;;;;;;;;;6308681;22;20229;-65
2022/03/16 09:07:52;;;;;;;9.00;5.05;;;;;;;;;;6309261;22;20139;-65
2022/03/16 09:10:18;;;;;;;8.40;5.20;;;;;;;;;;6308365;22;20139;-64
2022/03/16 09:12:44;;;;;;;7.82;5.32;;;;;;;;;;6308655;22;20455;-65
2022/03/16 09:15:10;;;;;;;9.00;5.50;;;;;;;;;;6308396;22;20142;-65
2022/03/16 09:17:36;;;;;;;10.45;5.50;;;;;;;;;;6310271;22;20196;-65
2022/03/16 09:20:03;;;;;;;10.23;6.05;;;;;;;;;;6310536;22;20135;-65
2022/03/16 09:22:29;;;;;;;7.95;5.28;;;;;;;;;;6310819;22;20143;-64
2022/03/16 09:24:58;;;;;;;10.15;5.78;;;;;;;;;;6310670;22;20142;-64
2022/03/16 09:27:25;;;;;;;9.13;5.50;;;;;;;;;;6310551;22;20157;-63
2022/03/16 09:29:53;;;;;;;9.05;5.65;;;;;;;;;;6310263;22;20541;-64
2022/03/16 09:32:21;;;;;;;7.63;5.22;;;;;;;;;;6311018;22;20222;-64
2022/03/16 09:34:47;;;;;;;12.52;6.15;;;;;;;;;;6310661;22;20174;-64
2022/03/16 09:37:13;;;;;;;10.13;5.75;;;;;;;;;;6283201;22;20154;-64
2022/03/16 09:39:39;;;;;;;9.05;5.65;;;;;;;;;;6310094;22;20139;-65
2022/03/16 09:42:05;;;;;;;9.70;5.55;;;;;;;;;;6310068;22;20135;-65
2022/03/16 09:44:31;;;;;;;7.85;5.28;;;;;;;;;;6310226;22;20143;-65
2022/03/16 09:46:58;;;;;;;9.80;5.25;;;;;;;;;;6310675;22;20170;-65
2022/03/16 09:49:26;;;;;;;9.88;5.53;;;;;;;;;;6310228;22;20445;-64
2022/03/16 09:51:53;;;;;;;10.05;5.30;;;;;;;;;;6310191;22;20239;-64
2022/03/16 09:54:19;;;;;;;8.48;5.82;;;;;;;;;;6310184;22;20308;-64
2022/03/16 09:56:45;;;;;;;9.65;5.97;;;;;;;;;;6310179;22;20150;-65
2022/03/16 09:59:11;;;;;;;8.93;5.38;;;;;;;;;;6310064;22;20154;-65
2022/03/16 10:01:37;;;;;;;7.45;5.10;;;;;;;;;;6310357;22;20213;-64
2022/03/16 10:04:05;;;;;;;9.15;5.15;;;;;;;;;;6309831;22;20154;-65
2022/03/16 10:06:31;;;;;;;9.30;5.55;;;;;;;;;;6309938;22;20162;-65
2022/03/16 10:14:26;;;;;;;7.82;4.93;;;;;;;;;;6310508;22;20224;-64
2022/03/16 10:19:48;;;;;;;8.07;4.90;;;;;;;;;;6311694;22;20186;-64
2022/03/16 10:22:22;;;;;;;8.90;5.18;;;;;;;;;;6311076;22;20151;-64
2022/03/16 10:24:48;;;;;;;13.95;5.68;;;;;;;;;;6309650;22;20190;-64
2022/03/16 10:27:17;;;;;;;12.35;5.80;;;;;;;;;;6309438;22;20189;-65
2022/03/16 10:29:46;;;;;;;8.90;5.43;;;;;;;;;;6310198;22;20138;-65
2022/03/16 10:32:12;;;;;;;7.65;5.35;;;;;;;;;;6310033;22;20143;-64
2022/03/16 10:34:48;;;;;;;9.02;4.78;;;;;;;;;;6308966;22;20180;-64
2022/03/16 10:37:21;;;;;;;8.55;5.30;;;;;;;;;;6309802;22;20165;-63
2022/03/16 10:39:49;;;;;;;8.02;5.32;;;;;;;;;;6309872;22;20139;-63
2022/03/16 10:47:58;;;;;;;7.82;4.82;;;;;;;;;;6309413;22;20490;-64
2022/03/16 10:50:24;;;;;;;7.38;5.10;;;;;;;;;;6308895;22;20221;-64
2022/03/16 10:52:50;;;;;;;8.07;5.05;;;;;;;;;;6309283;22;20147;-64
2022/03/16 10:55:17;;;;;;;6.60;5.05;;;;;;;;;;6281969;22;20139;-64
2022/03/16 10:57:43;;;;;;;7.80;5.15;;;;;;;;;;6309278;22;20143;-64
2022/03/16 11:00:09;;;;;;;9.48;5.10;;;;;;;;;;6308948;22;20146;-64
2022/03/16 11:02:37;;;;;;;7.65;4.88;;;;;;;;;;6309024;22;20135;-64
2022/03/16 11:05:03;;;;;;;10.15;5.25;;;;;;;;;;6308819;22;20551;-64
2022/03/16 11:07:30;;;;;;;8.45;4.82;;;;;;;;;;6308712;22;20190;-64
2022/03/16 11:09:57;;;;;;;9.55;5.63;;;;;;;;;;6308963;22;20226;-65
2022/03/16 11:15:08;;;;;;;11.30;5.53;;;;;;;;;;6309080;22;20190;-65
2022/03/16 11:17:36;;;;;;;8.82;5.40;;;;;;;;;;6308751;22;20188;-65
2022/03/16 11:20:03;;;;;;;8.20;5.25;;;;;;;;;;6308826;22;20140;-65
2022/03/16 11:26:00;;;;;;;8.27;5.45;;;;;;;;;;6173617;22;20170;-64
2022/03/16 11:28:35;;;;;;;7.93;4.82;;;;;;;;;;6308950;22;20299;-65
2022/03/16 11:31:01;;;;;;;6.95;4.95;;;;;;;;;;6309162;22;20188;-65
2022/03/16 11:33:27;;;;;;;6.55;4.78;;;;;;;;;;6309044;22;20231;-65
2022/03/16 11:35:55;;;;;;;8.40;5.25;;;;;;;;;;6309000;22;20135;-65
2022/03/16 11:38:21;;;;;;;8.75;5.38;;;;;;;;;;6308714;22;20227;-65
2022/03/16 11:40:49;;;;;;;8.48;5.70;;;;;;;;;;6308413;22;20146;-65
2022/03/16 11:43:16;;;;;;;7.18;5.20;;;;;;;;;;6310585;22;20143;-64
2022/03/16 11:45:44;;;;;;;8.32;5.55;;;;;;;;;;6308236;22;20223;-65
2022/03/16 11:48:28;;;;;;;8.18;5.47;;;;;;;;;;6308160;22;20165;-64
2022/03/16 11:51:07;;;;;;;8.00;5.18;;;;;;;;;;6308571;22;20169;-65
2022/03/16 11:53:50;;;;;;;7.55;5.15;;;;;;;;;;6308042;22;20197;-65
2022/03/16 11:56:20;;;;;;;9.55;5.85;;;;;;;;;;6308728;22;20200;-65
2022/03/16 11:58:47;;;;;;;10.80;5.90;;;;;;;;;;6308446;22;20185;-65
2022/03/16 12:01:28;;;;;;;7.55;5.60;;;;;;;;;;6281183;22;20336;-65
2022/03/16 12:03:58;;;;;;;11.13;5.45;;;;;;;;;;6308699;22;20158;-65
2022/03/16 12:06:29;;;;;;;11.07;6.22;;;;;;;;;;6308253;22;20520;-65
2022/03/16 12:08:59;;;;;;;8.45;5.70;;;;;;;;;;6308590;22;20128;-65
2022/03/16 12:14:11;;;;;;;8.38;5.55;;;;;;;;;;6307939;22;20185;-65
2022/03/16 12:16:43;;;;;;;8.60;5.47;;;;;;;;;;6308096;22;20150;-65
2022/03/16 12:19:29;;;;;;;8.13;5.30;;;;;;;;;;6308903;22;20173;-65
2022/03/16 12:21:56;;;;;;;9.57;5.50;;;;;;;;;;6308522;22;20139;-65
2022/03/16 12:30:13;;;;;;;7.35;5.22;;;;;;;;;;6308700;22;20141;-64
2022/03/16 12:32:39;;;;;;;9.73;5.43;;;;;;;;;;6308573;22;20167;-63
2022/03/16 12:35:05;;;;;;;8.68;5.07;;;;;;;;;;6307849;22;20656;-64
2022/03/16 12:37:31;;;;;;;8.90;5.35;;;;;;;;;;6307800;22;20162;-65
2022/03/16 12:39:57;;;;;;;10.80;5.82;;;;;;;;;;6308254;22;20147;-65
2022/03/16 12:42:33;;;;;;;9.13;5.00;;;;;;;;;;6308416;22;20160;-65
2022/03/16 12:45:06;;;;;;;9.00;5.32;;;;;;;;;;6308801;22;20135;-64
2022/03/16 12:47:38;;;;;;;9.48;5.60;;;;;;;;;;6308608;22;20155;-64
2022/03/16 12:50:04;;;;;;;8.02;5.00;;;;;;;;;;6309687;22;20127;-64
2022/03/16 12:52:30;;;;;;;11.68;6.20;;;;;;;;;;6310940;22;20145;-64
2022/03/16 12:54:56;;;;;;;8.50;5.45;;;;;;;;;;6310870;22;20466;-65
2022/03/16 12:57:22;;;;;;;7.88;4.85;;;;;;;;;;6310732;22;20150;-65
2022/03/16 12:59:52;;;;;;;8.45;5.10;;;;;;;;;;6310874;22;20139;-65
2022/03/16 13:02:20;;;;;;;7.63;5.28;;;;;;;;;;6311108;22;20128;-65
2022/03/16 13:04:51;;;;;;;9.90;6.65;;;;;;;;;;6311308;22;20147;-64
2022/03/16 13:07:19;;;;;;;10.10;5.63;;;;;;;;;;6311738;22;20170;-64
2022/03/16 13:09:45;;;;;;;9.00;5.80;;;;;;;;;;6311704;22;20142;-65
2022/03/16 13:12:12;;;;;;;8.50;5.90;;;;;;;;;;6311733;22;20785;-65
2022/03/16 13:14:41;;;;;;;9.27;5.90;;;;;;;;;;6312158;22;20590;-64
2022/03/16 13:17:07;;;;;;;9.27;4.85;;;;;;;;;;6312082;22;20138;-64
2022/03/16 13:19:34;;;;;;;7.13;5.25;;;;;;;;;;6311609;22;20226;-64
2022/03/16 13:22:02;;;;;;;9.18;4.95;;;;;;;;;;6311030;22;20189;-65
2022/03/16 13:24:36;;;;;;;8.57;5.00;;;;;;;;;;6310575;22;20153;-64
2022/03/16 13:27:04;;;;;;;9.90;4.85;;;;;;;;;;6313146;22;20150;-64
2022/03/16 13:29:31;;;;;;;8.48;5.15;;;;;;;;;;6311488;22;20153;-63
2022/03/16 13:31:58;;;;;;;9.68;4.90;;;;;;;;;;6310035;22;20151;-63
2022/03/16 13:34:26;;;;;;;7.35;4.65;;;;;;;;;;6309957;22;20178;-63
2022/03/16 13:36:52;;;;;;;11.65;6.00;;;;;;;;;;6309716;22;20663;-63
2022/03/16 13:39:20;;;;;;;9.90;5.55;;;;;;;;;;6310173;22;20139;-63
2022/03/16 13:42:10;;;;;;;7.85;5.45;;;;;;;;;;6310644;22;20158;-63
2022/03/16 13:44:43;;;;;;;7.57;5.30;;;;;;;;;;6310085;22;20135;-63
2022/03/16 13:47:11;;;;;;;9.20;5.35;;;;;;;;;;6309702;22;20550;-63
2022/03/16 13:49:38;;;;;;;7.50;5.03;;;;;;;;;;6310049;22;20143;-64
2022/03/16 13:52:05;;;;;;;9.52;5.53;;;;;;;;;;6309701;22;20143;-64
2022/03/16 13:54:31;;;;;;;8.30;5.15;;;;;;;;;;6309912;22;20478;-64
2022/03/16 13:57:06;;;;;;;9.65;6.22;;;;;;;;;;6309960;22;20149;-64
2022/03/16 13:59:31;;;;;;;8.50;5.55;;;;;;;;;;6309627;22;20210;-64
2022/03/16 14:02:10;;;;;;;8.52;5.55;;;;;;;;;;6309031;22;20162;-65
2022/03/16 14:04:40;;;;;;;9.07;6.13;;;;;;;;;;6309825;22;20161;-64
2022/03/16 14:07:18;;;;;;;10.18;5.43;;;;;;;;;;6309859;22;20145;-64
2022/03/16 14:09:48;;;;;;;20.35;6.82;;;;;;;;;;6310094;22;20146;-63
2022/03/16 14:12:14;;;;;;;15.70;6.78;;;;;;;;;;6309585;22;20163;-64
2022/03/16 14:14:44;;;;;;;11.38;6.20;;;;;;;;;;6309243;22;20169;-64
2022/03/16 14:17:10;;;;;;;15.98;6.25;;;;;;;;;;6309624;22;20139;-64
2022/03/16 14:19:37;;;;;;;9.82;5.63;;;;;;;;;;6309679;22;20167;-64
2022/03/16 14:22:03;;;;;;;11.18;5.75;;;;;;;;;;6309260;22;20161;-64
2022/03/16 14:24:29;;;;;;;8.98;5.80;;;;;;;;;;6309417;22;20143;-64
2022/03/16 14:26:55;;;;;;;8.57;6.40;;;;;;;;;;6309314;22;20221;-64
2022/03/16 14:29:22;;;;;;;8.18;5.45;;;;;;;;;;6309591;22;20147;-64
2022/03/16 14:31:49;;;;;;;13.93;6.70;;;;;;;;;;6309515;22;20139;-64
2022/03/16 14:34:15;;;;;;;12.48;6.70;;;;;;;;;;6309628;22;20166;-64
2022/03/16 14:36:41;;;;;;;10.90;6.65;;;;;;;;;;6309342;22;20225;-65
2022/03/16 14:39:07;;;;;;;13.10;6.50;;;;;;;;;;6309696;22;20595;-64
2022/03/16 14:41:34;;;;;;;11.10;6.35;;;;;;;;;;6309162;22;20139;-64
2022/03/16 14:43:59;;;;;;;9.73;5.95;;;;;;;;;;6309681;22;20139;-64
2022/03/16 14:46:26;;;;;;;9.57;6.10;;;;;;;;;;6309530;22;20154;-65
2022/03/16 14:48:52;;;;;;;13.75;7.20;;;;;;;;;;6309671;22;20443;-64
2022/03/16 14:51:18;;;;;;;11.57;6.18;;;;;;;;;;6309439;22;20147;-65
2022/03/16 14:53:44;;;;;;;11.85;6.72;;;;;;;;;;6282043;22;20185;-65